createdAt,value
2023-04-06T00:00:10.076Z,7.30
2023-04-06T00:00:22.390Z,7.30
2023-04-06T00:00:34.195Z,7.30
2023-04-06T00:00:45.960Z,7.30
2023-04-06T00:00:57.714Z,7.30
2023-04-06T00:01:09.550Z,7.20
2023-04-06T00:01:21.689Z,7.20
2023-04-06T00:01:33.503Z,7.20
2023-04-06T00:01:45.671Z,7.20
2023-04-06T00:01:57.603Z,7.20
2023-04-06T00:02:09.419Z,7.20
2023-04-06T00:02:21.336Z,7.20
2023-04-06T00:02:33.290Z,7.20
2023-04-06T00:02:45.234Z,7.20
2023-04-06T00:02:57.386Z,7.20
2023-04-06T00:03:09.354Z,7.20
2023-04-06T00:03:21.410Z,7.10
2023-04-06T00:03:33.316Z,7.10
2023-04-06T00:03:45.242Z,7.20
2023-04-06T00:03:57.308Z,7.20
2023-04-06T00:04:09.265Z,7.20
2023-04-06T00:04:21.157Z,7.20
2023-04-06T00:04:32.961Z,7.20
2023-04-06T00:04:44.997Z,7.20
2023-04-06T00:04:56.853Z,7.20
2023-04-06T00:05:08.922Z,7.20
2023-04-06T00:05:21.348Z,7.20
2023-04-06T00:05:33.176Z,7.10
2023-04-06T00:05:44.970Z,7.10
2023-04-06T00:05:56.824Z,7.10
2023-04-06T00:06:08.624Z,7.20
2023-04-06T00:06:21.130Z,7.20
2023-04-06T00:06:33.495Z,7.10
2023-04-06T00:06:45.252Z,7.10
2023-04-06T00:06:57.592Z,7.10
2023-04-06T00:07:09.418Z,7.10
2023-04-06T00:07:21.247Z,7.10
2023-04-06T00:07:34.389Z,7.10
2023-04-06T00:07:46.318Z,7.10
2023-04-06T00:08:01.475Z,7.10
2023-04-06T00:08:13.248Z,7.10
2023-04-06T00:08:24.999Z,7.10
2023-04-06T00:08:36.723Z,7.10
2023-04-06T00:08:48.554Z,7.10
2023-04-06T00:09:00.524Z,7.10
2023-04-06T00:09:12.234Z,7.10
2023-04-06T00:09:23.982Z,7.10
2023-04-06T00:09:35.774Z,7.10
2023-04-06T00:09:47.593Z,7.10
2023-04-06T00:09:59.317Z,7.10
2023-04-06T00:10:11.113Z,7.10
2023-04-06T00:10:22.875Z,7.10
2023-04-06T00:10:34.711Z,7.10
2023-04-06T00:10:46.533Z,7.10
2023-04-06T00:10:58.302Z,7.10
2023-04-06T00:11:10.067Z,7.10
2023-04-06T00:11:21.970Z,7.10
2023-04-06T00:11:33.741Z,7.10
2023-04-06T00:11:45.579Z,7.10
2023-04-06T00:11:57.587Z,7.10
2023-04-06T00:12:09.351Z,7.10
2023-04-06T00:12:21.406Z,7.10
2023-04-06T00:12:33.271Z,7.10
2023-04-06T00:12:45.022Z,7.10
2023-04-06T00:12:58.250Z,7.10
2023-04-06T00:13:10.078Z,7.10
2023-04-06T00:13:22.082Z,7.10
2023-04-06T00:13:33.836Z,7.10
2023-04-06T00:13:46.060Z,7.10
2023-04-06T00:13:58.051Z,7.10
2023-04-06T00:14:09.776Z,7.10
2023-04-06T00:14:21.670Z,7.10
2023-04-06T00:14:33.420Z,7.10
2023-04-06T00:14:45.340Z,7.10
2023-04-06T00:14:57.109Z,7.10
2023-04-06T00:15:09.444Z,7.10
2023-04-06T00:15:21.659Z,7.10
2023-04-06T00:15:33.406Z,7.10
2023-04-06T00:15:45.467Z,7.10
2023-04-06T00:15:57.197Z,7.10
2023-04-06T00:16:08.993Z,7.10
2023-04-06T00:16:21.601Z,7.10
2023-04-06T00:16:34.846Z,7.10
2023-04-06T00:16:46.706Z,7.10
2023-04-06T00:16:58.558Z,7.10
2023-04-06T00:17:10.504Z,7.10
2023-04-06T00:17:22.280Z,7.00
2023-04-06T00:17:34.052Z,7.00
2023-04-06T00:17:45.885Z,7.10
2023-04-06T00:17:58.007Z,7.00
2023-04-06T00:18:09.759Z,7.10
2023-04-06T00:18:21.625Z,7.00
2023-04-06T00:18:33.454Z,7.00
2023-04-06T00:18:45.242Z,7.00
2023-04-06T00:18:57.072Z,7.00
2023-04-06T00:19:09.136Z,7.00
2023-04-06T00:19:21.115Z,7.00
2023-04-06T00:19:32.937Z,7.00
2023-04-06T00:19:44.679Z,7.00
2023-04-06T00:19:56.472Z,7.00
2023-04-06T00:20:08.893Z,7.00
2023-04-06T00:20:20.788Z,7.00
2023-04-06T00:20:32.612Z,7.00
2023-04-06T00:20:44.340Z,7.00
2023-04-06T00:20:56.588Z,7.00
2023-04-06T00:21:08.363Z,7.00
2023-04-06T00:21:20.169Z,7.00
2023-04-06T00:21:32.322Z,7.00
2023-04-06T00:21:44.106Z,7.00
2023-04-06T00:21:56.105Z,7.00
2023-04-06T00:22:07.940Z,6.90
2023-04-06T00:22:19.740Z,6.90
2023-04-06T00:22:31.513Z,6.90
2023-04-06T00:22:43.404Z,6.90
2023-04-06T00:22:55.517Z,6.90
2023-04-06T00:23:07.271Z,6.90
2023-04-06T00:23:19.171Z,6.90
2023-04-06T00:23:30.904Z,6.90
2023-04-06T00:23:42.699Z,6.90
2023-04-06T00:23:54.541Z,6.90
2023-04-06T00:24:06.691Z,6.90
2023-04-06T00:24:18.514Z,6.90
2023-04-06T00:24:30.377Z,6.90
2023-04-06T00:24:42.175Z,6.90
2023-04-06T00:24:53.923Z,6.90
2023-04-06T00:25:06.440Z,6.90
2023-04-06T00:25:18.311Z,6.90
2023-04-06T00:25:30.174Z,6.90
2023-04-06T00:25:41.967Z,6.90
2023-04-06T00:25:53.715Z,6.90
2023-04-06T00:26:05.407Z,6.90
2023-04-06T00:26:17.210Z,6.90
2023-04-06T00:26:28.943Z,6.90
2023-04-06T00:26:40.777Z,6.90
2023-04-06T00:26:52.570Z,6.90
2023-04-06T00:27:04.338Z,6.90
2023-04-06T00:27:16.207Z,6.90
2023-04-06T00:27:27.984Z,6.90
2023-04-06T00:27:39.773Z,6.90
2023-04-06T00:27:51.542Z,6.80
2023-04-06T00:28:04.575Z,6.80
2023-04-06T00:28:16.506Z,6.80
2023-04-06T00:28:29.350Z,6.90
2023-04-06T00:28:41.112Z,6.80
2023-04-06T00:28:53.501Z,6.80
2023-04-06T00:29:05.616Z,6.80
2023-04-06T00:29:17.556Z,6.80
2023-04-06T00:29:29.416Z,6.80
2023-04-06T00:29:41.263Z,6.80
2023-04-06T00:29:53.003Z,6.80
2023-04-06T00:30:05.925Z,6.80
2023-04-06T00:30:17.711Z,6.80
2023-04-06T00:30:29.494Z,6.80
2023-04-06T00:30:41.924Z,6.80
2023-04-06T00:30:56.185Z,6.80
2023-04-06T00:31:07.954Z,6.80
2023-04-06T00:31:19.690Z,6.80
2023-04-06T00:31:31.576Z,6.80
2023-04-06T00:31:43.380Z,6.80
2023-04-06T00:31:55.433Z,6.80
2023-04-06T00:32:07.373Z,6.80
2023-04-06T00:32:19.251Z,6.70
2023-04-06T00:32:31.230Z,6.80
2023-04-06T00:32:43.028Z,6.70
2023-04-06T00:32:54.801Z,6.70
2023-04-06T00:33:06.738Z,6.70
2023-04-06T00:33:18.641Z,6.80
2023-04-06T00:33:30.600Z,6.70
2023-04-06T00:33:42.404Z,6.70
2023-04-06T00:33:54.147Z,6.80
2023-04-06T00:34:06.790Z,6.70
2023-04-06T00:34:18.517Z,6.70
2023-04-06T00:34:30.394Z,6.70
2023-04-06T00:34:42.142Z,6.70
2023-04-06T00:34:53.908Z,6.70
2023-04-06T00:35:06.128Z,6.70
2023-04-06T00:35:18.012Z,6.70
2023-04-06T00:35:29.751Z,6.70
2023-04-06T00:35:41.540Z,6.70
2023-04-06T00:35:53.448Z,6.60
2023-04-06T00:36:06.759Z,6.70
2023-04-06T00:36:18.658Z,6.70
2023-04-06T00:36:31.047Z,6.70
2023-04-06T00:36:42.900Z,6.70
2023-04-06T00:36:54.668Z,6.70
2023-04-06T00:37:06.472Z,6.70
2023-04-06T00:37:18.251Z,6.70
2023-04-06T00:37:29.955Z,6.60
2023-04-06T00:37:41.703Z,6.70
2023-04-06T00:37:53.465Z,6.70
2023-04-06T00:38:05.250Z,6.60
2023-04-06T00:38:17.217Z,6.60
2023-04-06T00:38:29.075Z,6.70
2023-04-06T00:38:40.804Z,6.60
2023-04-06T00:38:52.619Z,6.70
2023-04-06T00:39:04.378Z,6.60
2023-04-06T00:39:17.141Z,6.70
2023-04-06T00:39:30.219Z,6.70
2023-04-06T00:39:42.081Z,6.60
2023-04-06T00:39:53.857Z,6.60
2023-04-06T00:40:06.296Z,6.60
2023-04-06T00:40:18.172Z,6.60
2023-04-06T00:40:29.982Z,6.60
2023-04-06T00:40:41.931Z,6.60
2023-04-06T00:40:53.705Z,6.60
2023-04-06T00:41:05.516Z,6.60
2023-04-06T00:41:18.989Z,6.60
2023-04-06T00:41:30.788Z,6.50
2023-04-06T00:41:47.043Z,6.60
2023-04-06T00:41:58.832Z,6.60
2023-04-06T00:42:14.540Z,6.60
2023-04-06T00:42:27.084Z,6.50
2023-04-06T00:42:39.059Z,6.60
2023-04-06T00:42:51.083Z,6.60
2023-04-06T00:43:02.875Z,6.60
2023-04-06T00:43:14.837Z,6.60
2023-04-06T00:43:26.648Z,6.60
2023-04-06T00:43:38.388Z,6.60
2023-04-06T00:43:50.224Z,6.60
2023-04-06T00:44:02.081Z,6.60
2023-04-06T00:44:13.864Z,6.60
2023-04-06T00:44:25.764Z,6.60
2023-04-06T00:44:37.575Z,6.60
2023-04-06T00:44:49.396Z,6.60
2023-04-06T00:45:01.635Z,6.60
2023-04-06T00:45:13.409Z,6.60
2023-04-06T00:45:25.672Z,6.60
2023-04-06T00:45:37.462Z,6.60
2023-04-06T00:45:49.317Z,6.60
2023-04-06T00:46:01.156Z,6.60
2023-04-06T00:46:13.028Z,6.60
2023-04-06T00:46:24.930Z,6.60
2023-04-06T00:46:37.656Z,6.60
2023-04-06T00:46:49.393Z,6.60
2023-04-06T00:47:01.188Z,6.60
2023-04-06T00:47:12.945Z,6.60
2023-04-06T00:47:26.593Z,6.60
2023-04-06T00:47:38.561Z,6.60
2023-04-06T00:47:50.529Z,6.60
2023-04-06T00:48:02.990Z,6.60
2023-04-06T00:48:14.790Z,6.60
2023-04-06T00:48:26.627Z,6.60
2023-04-06T00:48:38.397Z,6.60
2023-04-06T00:48:50.144Z,6.60
2023-04-06T00:49:01.912Z,6.60
2023-04-06T00:49:13.679Z,6.60
2023-04-06T00:49:25.504Z,6.60
2023-04-06T00:49:37.307Z,6.60
2023-04-06T00:49:49.341Z,6.60
2023-04-06T00:50:01.228Z,6.60
2023-04-06T00:50:13.027Z,6.60
2023-04-06T00:50:24.799Z,6.60
2023-04-06T00:50:36.573Z,6.60
2023-04-06T00:50:48.354Z,6.60
2023-04-06T00:51:00.337Z,6.60
2023-04-06T00:51:12.141Z,6.60
2023-04-06T00:51:23.918Z,6.60
2023-04-06T00:51:35.647Z,6.60
2023-04-06T00:51:47.432Z,6.60
2023-04-06T00:51:59.197Z,6.60
2023-04-06T00:52:11.431Z,6.70
2023-04-06T00:52:23.331Z,6.60
2023-04-06T00:52:35.863Z,6.60
2023-04-06T00:52:47.569Z,6.60
2023-04-06T00:53:02.063Z,6.60
2023-04-06T00:53:13.851Z,6.60
2023-04-06T00:53:25.809Z,6.60
2023-04-06T00:53:37.583Z,6.60
2023-04-06T00:53:49.399Z,6.60
2023-04-06T00:54:01.211Z,6.60
2023-04-06T00:54:13.021Z,6.60
2023-04-06T00:54:24.806Z,6.60
2023-04-06T00:54:36.557Z,6.60
2023-04-06T00:54:48.326Z,6.60
2023-04-06T00:55:00.399Z,6.60
2023-04-06T00:55:12.285Z,6.60
2023-04-06T00:55:24.088Z,6.60
2023-04-06T00:55:37.038Z,6.60
2023-04-06T00:55:48.802Z,6.60
2023-04-06T00:56:00.593Z,6.60
2023-04-06T00:56:12.325Z,6.60
2023-04-06T00:56:24.740Z,6.60
2023-04-06T00:56:36.616Z,6.60
2023-04-06T00:56:48.403Z,6.60
2023-04-06T00:57:00.742Z,6.60
2023-04-06T00:57:13.174Z,6.60
2023-04-06T00:57:24.877Z,6.60
2023-04-06T00:57:36.861Z,6.60
2023-04-06T00:57:48.728Z,6.60
2023-04-06T00:58:01.819Z,6.60
2023-04-06T00:58:13.589Z,6.60
2023-04-06T00:58:25.720Z,6.60
2023-04-06T00:58:39.673Z,6.50
2023-04-06T00:58:51.498Z,6.50
2023-04-06T00:59:03.327Z,6.50
2023-04-06T00:59:15.228Z,6.50
2023-04-06T00:59:27.699Z,6.50
2023-04-06T00:59:40.094Z,6.50
2023-04-06T00:59:52.614Z,6.50
2023-04-06T01:00:05.047Z,6.50
2023-04-06T01:00:17.258Z,6.50
2023-04-06T01:00:29.097Z,6.40
2023-04-06T01:00:41.164Z,6.50
2023-04-06T01:00:52.924Z,6.50
2023-04-06T01:01:04.705Z,6.50
2023-04-06T01:01:16.567Z,6.50
2023-04-06T01:01:30.265Z,6.50
2023-04-06T01:01:42.186Z,6.50
2023-04-06T01:01:54.059Z,6.50
2023-04-06T01:02:05.991Z,6.50
2023-04-06T01:02:17.792Z,6.50
2023-04-06T01:02:29.667Z,6.50
2023-04-06T01:02:41.507Z,6.50
2023-04-06T01:02:53.704Z,6.50
2023-04-06T01:03:07.257Z,6.40
2023-04-06T01:03:19.055Z,6.40
2023-04-06T01:03:33.875Z,6.40
2023-04-06T01:03:48.667Z,6.40
2023-04-06T01:04:01.005Z,6.50
2023-04-06T01:04:12.833Z,6.50
2023-04-06T01:04:24.730Z,6.40
2023-04-06T01:04:36.568Z,6.50
2023-04-06T01:04:48.351Z,6.50
2023-04-06T01:05:00.206Z,6.50
2023-04-06T01:05:12.322Z,6.50
2023-04-06T01:05:24.131Z,6.40
2023-04-06T01:05:41.248Z,6.40
2023-04-06T01:05:56.726Z,6.50
2023-04-06T01:06:08.601Z,6.50
2023-04-06T01:06:20.576Z,6.40
2023-04-06T01:06:32.309Z,6.50
2023-04-06T01:06:44.061Z,6.50
2023-04-06T01:06:55.865Z,6.50
2023-04-06T01:07:07.625Z,6.50
2023-04-06T01:07:19.408Z,6.50
2023-04-06T01:07:31.276Z,6.50
2023-04-06T01:07:43.046Z,6.50
2023-04-06T01:07:54.824Z,6.50
2023-04-06T01:08:07.205Z,6.50
2023-04-06T01:08:19.039Z,6.50
2023-04-06T01:08:31.082Z,6.50
2023-04-06T01:08:42.889Z,6.50
2023-04-06T01:08:54.611Z,6.50
2023-04-06T01:09:06.780Z,6.50
2023-04-06T01:09:18.723Z,6.50
2023-04-06T01:09:31.307Z,6.50
2023-04-06T01:09:43.112Z,6.50
2023-04-06T01:09:55.738Z,6.50
2023-04-06T01:10:07.821Z,6.50
2023-04-06T01:10:29.234Z,6.40
2023-04-06T01:10:41.086Z,6.40
2023-04-06T01:10:52.866Z,6.50
2023-04-06T01:11:04.716Z,6.50
2023-04-06T01:11:16.435Z,6.40
2023-04-06T01:11:28.213Z,6.40
2023-04-06T01:11:40.028Z,6.40
2023-04-06T01:11:51.852Z,6.40
2023-04-06T01:12:04.336Z,6.40
2023-04-06T01:12:16.282Z,6.40
2023-04-06T01:12:28.033Z,6.40
2023-04-06T01:12:39.928Z,6.40
2023-04-06T01:12:51.660Z,6.40
2023-04-06T01:13:03.436Z,6.40
2023-04-06T01:13:15.526Z,6.40
2023-04-06T01:13:28.213Z,6.40
2023-04-06T01:13:39.999Z,6.40
2023-04-06T01:13:51.850Z,6.40
2023-04-06T01:14:04.274Z,6.40
2023-04-06T01:14:16.059Z,6.40
2023-04-06T01:14:27.856Z,6.40
2023-04-06T01:14:39.636Z,6.40
2023-04-06T01:14:51.439Z,6.40
2023-04-06T01:15:03.357Z,6.40
2023-04-06T01:15:15.113Z,6.40
2023-04-06T01:15:26.997Z,6.40
2023-04-06T01:15:40.226Z,6.40
2023-04-06T01:15:52.065Z,6.40
2023-04-06T01:16:04.134Z,6.30
2023-04-06T01:16:16.151Z,6.40
2023-04-06T01:16:28.035Z,6.30
2023-04-06T01:16:39.936Z,6.40
2023-04-06T01:16:53.199Z,6.40
2023-04-06T01:17:05.152Z,6.40
2023-04-06T01:17:16.896Z,6.30
2023-04-06T01:17:29.782Z,6.30
2023-04-06T01:17:41.701Z,6.30
2023-04-06T01:17:53.477Z,6.30
2023-04-06T01:18:07.631Z,6.30
2023-04-06T01:18:19.504Z,6.30
2023-04-06T01:18:31.517Z,6.30
2023-04-06T01:18:43.440Z,6.30
2023-04-06T01:18:55.214Z,6.30
2023-04-06T01:19:11.081Z,6.30
2023-04-06T01:19:22.957Z,6.30
2023-04-06T01:19:34.772Z,6.30
2023-04-06T01:19:46.543Z,6.30
2023-04-06T01:19:58.274Z,6.30
2023-04-06T01:20:10.323Z,6.30
2023-04-06T01:20:22.335Z,6.30
2023-04-06T01:20:34.110Z,6.30
2023-04-06T01:20:45.931Z,6.30
2023-04-06T01:20:57.727Z,6.30
2023-04-06T01:21:11.245Z,6.30
2023-04-06T01:21:23.012Z,6.30
2023-04-06T01:21:34.821Z,6.30
2023-04-06T01:21:46.688Z,6.30
2023-04-06T01:21:58.454Z,6.30
2023-04-06T01:22:16.195Z,6.30
2023-04-06T01:22:27.972Z,6.30
2023-04-06T01:22:39.750Z,6.30
2023-04-06T01:22:51.588Z,6.30
2023-04-06T01:23:03.385Z,6.30
2023-04-06T01:23:15.149Z,6.20
2023-04-06T01:23:26.971Z,6.30
2023-04-06T01:23:38.718Z,6.30
2023-04-06T01:23:50.526Z,6.30
2023-04-06T01:24:02.267Z,6.30
2023-04-06T01:24:14.094Z,6.30
2023-04-06T01:24:25.917Z,6.30
2023-04-06T01:24:37.690Z,6.30
2023-04-06T01:24:49.587Z,6.30
2023-04-06T01:25:01.349Z,6.30
2023-04-06T01:25:13.143Z,6.30
2023-04-06T01:25:24.986Z,6.20
2023-04-06T01:25:36.704Z,6.20
2023-04-06T01:25:48.596Z,6.30
2023-04-06T01:26:00.818Z,6.20
2023-04-06T01:26:13.585Z,6.30
2023-04-06T01:26:25.331Z,6.30
2023-04-06T01:26:37.835Z,6.30
2023-04-06T01:26:49.652Z,6.30
2023-04-06T01:27:02.184Z,6.30
2023-04-06T01:27:14.140Z,6.30
2023-04-06T01:27:27.423Z,6.30
2023-04-06T01:27:39.208Z,6.30
2023-04-06T01:27:50.914Z,6.30
2023-04-06T01:28:02.790Z,6.30
2023-04-06T01:28:14.563Z,6.30
2023-04-06T01:28:26.388Z,6.30
2023-04-06T01:28:38.607Z,6.30
2023-04-06T01:28:50.416Z,6.20
2023-04-06T01:29:02.742Z,6.20
2023-04-06T01:29:14.480Z,6.30
2023-04-06T01:29:26.441Z,6.30
2023-04-06T01:29:38.220Z,6.30
2023-04-06T01:29:49.980Z,6.30
2023-04-06T01:30:01.773Z,6.30
2023-04-06T01:30:13.760Z,6.20
2023-04-06T01:30:25.588Z,6.20
2023-04-06T01:30:37.334Z,6.20
2023-04-06T01:30:49.082Z,6.20
2023-04-06T01:31:01.188Z,6.20
2023-04-06T01:31:13.000Z,6.20
2023-04-06T01:31:25.602Z,6.20
2023-04-06T01:31:37.539Z,6.20
2023-04-06T01:31:49.479Z,6.20
2023-04-06T01:32:01.439Z,6.20
2023-04-06T01:32:13.170Z,6.20
2023-04-06T01:32:25.122Z,6.10
2023-04-06T01:32:37.122Z,6.10
2023-04-06T01:32:48.981Z,6.10
2023-04-06T01:33:01.196Z,6.20
2023-04-06T01:33:13.002Z,6.10
2023-04-06T01:33:24.902Z,6.10
2023-04-06T01:33:36.893Z,6.10
2023-04-06T01:33:48.927Z,6.10
2023-04-06T01:34:00.741Z,6.10
2023-04-06T01:34:12.576Z,6.10
2023-04-06T01:34:24.345Z,6.10
2023-04-06T01:34:36.153Z,6.10
2023-04-06T01:34:47.940Z,6.10
2023-04-06T01:34:59.695Z,6.10
2023-04-06T01:35:11.863Z,6.10
2023-04-06T01:35:23.680Z,6.10
2023-04-06T01:35:35.477Z,6.10
2023-04-06T01:35:47.275Z,6.10
2023-04-06T01:35:59.152Z,6.00
2023-04-06T01:36:10.971Z,6.00
2023-04-06T01:36:23.015Z,6.00
2023-04-06T01:36:34.800Z,6.00
2023-04-06T01:36:46.746Z,6.00
2023-04-06T01:36:58.564Z,6.00
2023-04-06T01:37:10.391Z,6.00
2023-04-06T01:37:22.177Z,6.00
2023-04-06T01:37:33.951Z,6.00
2023-04-06T01:37:45.808Z,6.00
2023-04-06T01:37:57.606Z,6.00
2023-04-06T01:38:09.350Z,6.00
2023-04-06T01:38:21.322Z,6.00
2023-04-06T01:38:33.092Z,6.00
2023-04-06T01:38:44.832Z,6.00
2023-04-06T01:38:56.602Z,6.00
2023-04-06T01:39:08.580Z,6.00
2023-04-06T01:39:20.556Z,6.00
2023-04-06T01:39:32.402Z,6.00
2023-04-06T01:39:44.525Z,6.00
2023-04-06T01:39:56.301Z,6.00
2023-04-06T01:40:08.719Z,6.00
2023-04-06T01:40:20.482Z,6.00
2023-04-06T01:40:32.648Z,5.90
2023-04-06T01:40:44.432Z,6.00
2023-04-06T01:40:56.427Z,5.90
2023-04-06T01:41:08.813Z,5.90
2023-04-06T01:41:21.107Z,5.90
2023-04-06T01:41:32.934Z,5.90
2023-04-06T01:41:44.755Z,5.90
2023-04-06T01:41:56.546Z,5.90
2023-04-06T01:42:08.439Z,5.90
2023-04-06T01:42:20.139Z,5.90
2023-04-06T01:42:31.901Z,5.90
2023-04-06T01:42:43.705Z,5.90
2023-04-06T01:42:55.510Z,5.90
2023-04-06T01:43:07.755Z,5.90
2023-04-06T01:43:19.712Z,5.90
2023-04-06T01:43:31.649Z,5.90
2023-04-06T01:43:44.131Z,5.90
2023-04-06T01:43:55.980Z,5.90
2023-04-06T01:44:07.741Z,5.90
2023-04-06T01:44:20.092Z,5.90
2023-04-06T01:44:31.964Z,5.90
2023-04-06T01:44:43.804Z,5.90
2023-04-06T01:44:55.565Z,5.90
2023-04-06T01:45:07.858Z,5.90
2023-04-06T01:45:19.571Z,5.90
2023-04-06T01:45:31.441Z,5.90
2023-04-06T01:45:43.183Z,5.90
2023-04-06T01:45:54.950Z,5.90
2023-04-06T01:46:06.742Z,5.90
2023-04-06T01:46:18.613Z,5.90
2023-04-06T01:46:30.497Z,5.90
2023-04-06T01:46:42.338Z,5.90
2023-04-06T01:46:54.360Z,5.90
2023-04-06T01:47:06.520Z,5.90
2023-04-06T01:47:18.276Z,5.90
2023-04-06T01:47:30.011Z,5.90
2023-04-06T01:47:42.152Z,5.90
2023-04-06T01:47:54.011Z,5.90
2023-04-06T01:48:06.102Z,5.90
2023-04-06T01:48:17.843Z,5.80
2023-04-06T01:48:29.644Z,5.90
2023-04-06T01:48:41.533Z,5.90
2023-04-06T01:48:53.455Z,5.90
2023-04-06T01:49:05.336Z,5.90
2023-04-06T01:49:17.113Z,5.90
2023-04-06T01:49:28.888Z,5.90
2023-04-06T01:49:40.651Z,5.90
2023-04-06T01:49:52.486Z,5.80
2023-04-06T01:50:07.177Z,5.90
2023-04-06T01:50:18.959Z,5.90
2023-04-06T01:50:30.701Z,5.90
2023-04-06T01:50:42.454Z,5.90
2023-04-06T01:50:54.881Z,5.90
2023-04-06T01:51:06.852Z,5.90
2023-04-06T01:51:18.622Z,5.90
2023-04-06T01:51:31.163Z,5.90
2023-04-06T01:51:42.967Z,5.90
2023-04-06T01:51:55.447Z,5.90
2023-04-06T01:52:07.357Z,5.90
2023-04-06T01:52:19.115Z,5.90
2023-04-06T01:52:31.017Z,5.90
2023-04-06T01:52:42.733Z,5.90
2023-04-06T01:52:54.441Z,5.90
2023-04-06T01:53:06.334Z,5.80
2023-04-06T01:53:18.143Z,5.90
2023-04-06T01:53:30.047Z,5.90
2023-04-06T01:53:41.747Z,5.90
2023-04-06T01:53:53.643Z,5.80
2023-04-06T01:54:06.031Z,5.80
2023-04-06T01:54:17.841Z,5.80
2023-04-06T01:54:29.618Z,5.80
2023-04-06T01:54:41.756Z,5.80
2023-04-06T01:54:53.651Z,5.80
2023-04-06T01:55:05.509Z,5.80
2023-04-06T01:55:17.330Z,5.80
2023-04-06T01:55:29.072Z,5.80
2023-04-06T01:55:41.029Z,5.80
2023-04-06T01:55:52.803Z,5.80
2023-04-06T01:56:04.815Z,5.80
2023-04-06T01:56:16.586Z,5.80
2023-04-06T01:56:28.417Z,5.80
2023-04-06T01:56:40.985Z,5.80
2023-04-06T01:56:53.629Z,5.80
2023-04-06T01:57:05.841Z,5.80
2023-04-06T01:57:17.584Z,5.80
2023-04-06T01:57:29.288Z,5.80
2023-04-06T01:57:41.073Z,5.80
2023-04-06T01:57:52.805Z,5.80
2023-04-06T01:58:04.590Z,5.80
2023-04-06T01:58:16.478Z,5.70
2023-04-06T01:58:28.195Z,5.70
2023-04-06T01:58:39.976Z,5.70
2023-04-06T01:58:51.729Z,5.70
2023-04-06T01:59:03.751Z,5.70
2023-04-06T01:59:15.566Z,5.70
2023-04-06T01:59:27.438Z,5.70
2023-04-06T01:59:39.410Z,5.70
2023-04-06T01:59:51.357Z,5.80
2023-04-06T02:00:03.565Z,5.80
2023-04-06T02:00:16.231Z,5.80
2023-04-06T02:00:28.018Z,5.80
2023-04-06T02:00:39.893Z,5.80
2023-04-06T02:00:51.766Z,5.80
2023-04-06T02:01:06.691Z,5.80
2023-04-06T02:01:18.546Z,5.80
2023-04-06T02:01:30.378Z,5.70
2023-04-06T02:01:42.320Z,5.70
2023-04-06T02:01:54.122Z,5.70
2023-04-06T02:02:06.096Z,5.70
2023-04-06T02:02:18.009Z,5.70
2023-04-06T02:02:29.987Z,5.70
2023-04-06T02:02:41.925Z,5.70
2023-04-06T02:02:53.748Z,5.70
2023-04-06T02:03:05.774Z,5.70
2023-04-06T02:03:17.657Z,5.70
2023-04-06T02:03:29.481Z,5.70
2023-04-06T02:03:41.237Z,5.70
2023-04-06T02:03:52.973Z,5.70
2023-04-06T02:04:04.751Z,5.70
2023-04-06T02:04:16.574Z,5.70
2023-04-06T02:04:28.338Z,5.70
2023-04-06T02:04:40.304Z,5.70
2023-04-06T02:04:52.140Z,5.70
2023-04-06T02:05:04.220Z,5.70
2023-04-06T02:05:16.221Z,5.70
2023-04-06T02:05:30.135Z,5.70
2023-04-06T02:05:41.849Z,5.70
2023-04-06T02:05:53.568Z,5.70
2023-04-06T02:06:05.520Z,5.70
2023-04-06T02:06:17.277Z,5.70
2023-04-06T02:06:29.047Z,5.60
2023-04-06T02:06:40.870Z,5.70
2023-04-06T02:06:52.672Z,5.60
2023-04-06T02:07:04.506Z,5.60
2023-04-06T02:07:16.255Z,5.60
2023-04-06T02:07:28.045Z,5.60
2023-04-06T02:07:39.834Z,5.60
2023-04-06T02:07:52.619Z,5.60
2023-04-06T02:08:07.299Z,5.60
2023-04-06T02:08:19.088Z,5.60
2023-04-06T02:08:30.892Z,5.60
2023-04-06T02:08:42.699Z,5.60
2023-04-06T02:08:54.479Z,5.60
2023-04-06T02:09:06.765Z,5.60
2023-04-06T02:09:18.784Z,5.60
2023-04-06T02:09:30.638Z,5.60
2023-04-06T02:09:42.433Z,5.50
2023-04-06T02:09:55.753Z,5.60
2023-04-06T02:10:12.452Z,5.50
2023-04-06T02:10:24.738Z,5.60
2023-04-06T02:10:36.602Z,5.50
2023-04-06T02:10:48.386Z,5.50
2023-04-06T02:11:00.151Z,5.50
2023-04-06T02:11:11.956Z,5.60
2023-04-06T02:11:23.734Z,5.60
2023-04-06T02:11:36.428Z,5.60
2023-04-06T02:11:48.204Z,5.50
2023-04-06T02:12:00.040Z,5.60
2023-04-06T02:12:11.768Z,5.60
2023-04-06T02:12:24.997Z,5.60
2023-04-06T02:12:36.876Z,5.60
2023-04-06T02:12:48.706Z,5.60
2023-04-06T02:13:00.504Z,5.60
2023-04-06T02:13:12.279Z,5.60
2023-04-06T02:13:24.101Z,5.60
2023-04-06T02:13:35.920Z,5.60
2023-04-06T02:13:47.741Z,5.60
2023-04-06T02:14:01.693Z,5.60
2023-04-06T02:14:13.493Z,5.60
2023-04-06T02:14:26.415Z,5.60
2023-04-06T02:14:38.172Z,5.60
2023-04-06T02:14:49.979Z,5.60
2023-04-06T02:15:01.746Z,5.60
2023-04-06T02:15:14.372Z,5.60
2023-04-06T02:15:26.479Z,5.60
2023-04-06T02:15:38.285Z,5.60
2023-04-06T02:15:50.093Z,5.60
2023-04-06T02:16:03.716Z,5.60
2023-04-06T02:16:16.950Z,5.60
2023-04-06T02:16:28.817Z,5.60
2023-04-06T02:16:40.749Z,5.60
2023-04-06T02:16:52.843Z,5.60
2023-04-06T02:17:04.977Z,5.60
2023-04-06T02:17:16.796Z,5.60
2023-04-06T02:17:28.598Z,5.60
2023-04-06T02:17:41.032Z,5.60
2023-04-06T02:17:52.886Z,5.60
2023-04-06T02:18:05.066Z,5.60
2023-04-06T02:18:18.697Z,5.60
2023-04-06T02:18:31.999Z,5.60
2023-04-06T02:18:43.883Z,5.60
2023-04-06T02:18:55.723Z,5.60
2023-04-06T02:19:07.814Z,5.60
2023-04-06T02:19:19.911Z,5.60
2023-04-06T02:19:31.736Z,5.60
2023-04-06T02:19:45.657Z,5.60
2023-04-06T02:19:57.402Z,5.60
2023-04-06T02:20:09.544Z,5.60
2023-04-06T02:20:21.642Z,5.60
2023-04-06T02:20:33.359Z,5.60
2023-04-06T02:20:45.811Z,5.60
2023-04-06T02:20:57.581Z,5.60
2023-04-06T02:21:09.369Z,5.60
2023-04-06T02:21:21.421Z,5.60
2023-04-06T02:21:33.331Z,5.60
2023-04-06T02:21:45.062Z,5.60
2023-04-06T02:21:57.107Z,5.60
2023-04-06T02:22:08.891Z,5.60
2023-04-06T02:22:20.851Z,5.60
2023-04-06T02:22:32.644Z,5.60
2023-04-06T02:22:44.638Z,5.60
2023-04-06T02:22:59.362Z,5.50
2023-04-06T02:23:11.172Z,5.60
2023-04-06T02:23:22.982Z,5.50
2023-04-06T02:23:34.888Z,5.60
2023-04-06T02:23:50.544Z,5.50
2023-04-06T02:24:02.294Z,5.50
2023-04-06T02:24:14.043Z,5.60
2023-04-06T02:24:25.883Z,5.60
2023-04-06T02:24:37.688Z,5.60
2023-04-06T02:24:49.549Z,5.60
2023-04-06T02:25:01.477Z,5.60
2023-04-06T02:25:13.345Z,5.60
2023-04-06T02:25:25.187Z,5.60
2023-04-06T02:25:37.069Z,5.60
2023-04-06T02:25:48.847Z,5.50
2023-04-06T02:26:03.296Z,5.60
2023-04-06T02:26:15.693Z,5.60
2023-04-06T02:26:27.432Z,5.60
2023-04-06T02:26:39.235Z,5.50
2023-04-06T02:26:51.086Z,5.60
2023-04-06T02:27:02.880Z,5.50
2023-04-06T02:27:17.387Z,5.50
2023-04-06T02:27:29.169Z,5.50
2023-04-06T02:27:40.873Z,5.50
2023-04-06T02:27:52.702Z,5.50
2023-04-06T02:28:04.732Z,5.50
2023-04-06T02:28:16.620Z,5.50
2023-04-06T02:28:29.919Z,5.50
2023-04-06T02:28:41.684Z,5.50
2023-04-06T02:28:53.445Z,5.50
2023-04-06T02:29:05.658Z,5.50
2023-04-06T02:29:17.538Z,5.50
2023-04-06T02:29:29.270Z,5.50
2023-04-06T02:29:41.053Z,5.50
2023-04-06T02:29:52.843Z,5.50
2023-04-06T02:30:05.076Z,5.50
2023-04-06T02:30:16.901Z,5.50
2023-04-06T02:30:30.059Z,5.50
2023-04-06T02:30:41.887Z,5.50
2023-04-06T02:30:53.762Z,5.50
2023-04-06T02:31:05.548Z,5.50
2023-04-06T02:31:17.422Z,5.50
2023-04-06T02:31:29.420Z,5.50
2023-04-06T02:31:41.329Z,5.50
2023-04-06T02:31:53.178Z,5.50
2023-04-06T02:32:05.784Z,5.50
2023-04-06T02:32:17.574Z,5.50
2023-04-06T02:32:29.397Z,5.50
2023-04-06T02:32:41.267Z,5.50
2023-04-06T02:32:53.130Z,5.50
2023-04-06T02:33:05.110Z,5.50
2023-04-06T02:33:16.916Z,5.50
2023-04-06T02:33:28.683Z,5.50
2023-04-06T02:33:40.556Z,5.50
2023-04-06T02:33:52.355Z,5.50
2023-04-06T02:34:04.150Z,5.50
2023-04-06T02:34:18.687Z,5.50
2023-04-06T02:34:31.877Z,5.50
2023-04-06T02:34:43.642Z,5.50
2023-04-06T02:34:55.417Z,5.40
2023-04-06T02:35:07.439Z,5.40
2023-04-06T02:35:19.319Z,5.40
2023-04-06T02:35:31.533Z,5.40
2023-04-06T02:35:45.577Z,5.40
2023-04-06T02:35:57.370Z,5.40
2023-04-06T02:36:09.273Z,5.40
2023-04-06T02:36:21.153Z,5.40
2023-04-06T02:36:32.918Z,5.40
2023-04-06T02:36:47.747Z,5.40
2023-04-06T02:36:59.558Z,5.40
2023-04-06T02:37:11.303Z,5.40
2023-04-06T02:37:25.013Z,5.40
2023-04-06T02:37:36.947Z,5.40
2023-04-06T02:37:48.724Z,5.40
2023-04-06T02:38:00.496Z,5.40
2023-04-06T02:38:12.286Z,5.40
2023-04-06T02:38:24.145Z,5.40
2023-04-06T02:38:36.130Z,5.40
2023-04-06T02:38:47.925Z,5.40
2023-04-06T02:38:59.700Z,5.40
2023-04-06T02:39:11.810Z,5.40
2023-04-06T02:39:23.882Z,5.40
2023-04-06T02:39:35.960Z,5.40
2023-04-06T02:39:47.929Z,5.40
2023-04-06T02:39:59.688Z,5.40
2023-04-06T02:40:11.568Z,5.40
2023-04-06T02:40:23.349Z,5.40
2023-04-06T02:40:35.347Z,5.40
2023-04-06T02:40:47.134Z,5.40